sensor_id;sensor_type;location;lat;lon;timestamp;temperature;humidity
45906;DHT22;31619;49.008;12.106;2023-05-07T00:00:00;12.30;99.90
45906;DHT22;31619;49.008;12.106;2023-05-07T00:02:26;12.10;99.90
45906;DHT22;31619;49.008;12.106;2023-05-07T00:04:52;12.10;99.90
45906;DHT22;31619;49.008;12.106;2023-05-07T00:07:17;12.10;99.90
45906;DHT22;31619;49.008;12.106;2023-05-07T00:09:43;12.10;99.90
45906;DHT22;31619;49.008;12.106;2023-05-07T00:12:09;12.10;99.90
45906;DHT22;31619;49.008;12.106;2023-05-07T00:14:35;12.00;99.90
45906;DHT22;31619;49.008;12.106;2023-05-07T00:17:01;12.00;99.90
45906;DHT22;31619;49.008;12.106;2023-05-07T00:19:26;12.00;99.90
45906;DHT22;31619;49.008;12.106;2023-05-07T00:21:52;12.00;99.90
45906;DHT22;31619;49.008;12.106;2023-05-07T00:24:19;12.00;99.90
45906;DHT22;31619;49.008;12.106;2023-05-07T00:26:45;12.00;99.90
45906;DHT22;31619;49.008;12.106;2023-05-07T00:29:10;12.00;99.90
45906;DHT22;31619;49.008;12.106;2023-05-07T00:31:36;12.00;99.90
45906;DHT22;31619;49.008;12.106;2023-05-07T00:34:02;11.90;99.90
45906;DHT22;31619;49.008;12.106;2023-05-07T00:36:28;11.90;99.90
45906;DHT22;31619;49.008;12.106;2023-05-07T00:38:56;11.90;99.90
45906;DHT22;31619;49.008;12.106;2023-05-07T00:41:22;11.90;99.90
45906;DHT22;31619;49.008;12.106;2023-05-07T00:43:48;11.90;99.90
45906;DHT22;31619;49.008;12.106;2023-05-07T00:46:13;12.00;99.90
45906;DHT22;31619;49.008;12.106;2023-05-07T00:48:40;11.90;99.90
45906;DHT22;31619;49.008;12.106;2023-05-07T00:51:05;11.80;99.90
45906;DHT22;31619;49.008;12.106;2023-05-07T00:53:32;11.90;99.90
45906;DHT22;31619;49.008;12.106;2023-05-07T00:55:58;11.70;99.90
45906;DHT22;31619;49.008;12.106;2023-05-07T00:58:23;11.70;99.90
45906;DHT22;31619;49.008;12.106;2023-05-07T01:00:50;11.60;99.90
45906;DHT22;31619;49.008;12.106;2023-05-07T01:03:16;11.50;99.90
45906;DHT22;31619;49.008;12.106;2023-05-07T01:05:42;11.50;99.90
45906;DHT22;31619;49.008;12.106;2023-05-07T01:08:08;11.50;99.90
45906;DHT22;31619;49.008;12.106;2023-05-07T01:10:34;11.40;99.90
45906;DHT22;31619;49.008;12.106;2023-05-07T01:13:00;11.40;99.90
45906;DHT22;31619;49.008;12.106;2023-05-07T01:15:26;11.40;99.90
45906;DHT22;31619;49.008;12.106;2023-05-07T01:17:52;11.40;99.90
45906;DHT22;31619;49.008;12.106;2023-05-07T01:20:18;11.30;99.90
45906;DHT22;31619;49.008;12.106;2023-05-07T01:22:45;11.30;99.90
45906;DHT22;31619;49.008;12.106;2023-05-07T01:25:11;11.20;99.90
45906;DHT22;31619;49.008;12.106;2023-05-07T01:27:37;11.20;99.90
45906;DHT22;31619;49.008;12.106;2023-05-07T01:30:04;11.20;99.90
45906;DHT22;31619;49.008;12.106;2023-05-07T01:32:48;11.20;99.90
45906;DHT22;31619;49.008;12.106;2023-05-07T01:35:19;11.20;99.90
45906;DHT22;31619;49.008;12.106;2023-05-07T01:37:46;11.10;99.90
45906;DHT22;31619;49.008;12.106;2023-05-07T01:40:13;11.10;99.90
45906;DHT22;31619;49.008;12.106;2023-05-07T01:42:39;11.10;99.90
45906;DHT22;31619;49.008;12.106;2023-05-07T01:45:05;11.20;99.90
45906;DHT22;31619;49.008;12.106;2023-05-07T01:47:32;11.20;99.90
45906;DHT22;31619;49.008;12.106;2023-05-07T01:49:58;11.10;99.90
45906;DHT22;31619;49.008;12.106;2023-05-07T01:52:24;11.10;99.90
45906;DHT22;31619;49.008;12.106;2023-05-07T01:54:50;11.10;99.90
45906;DHT22;31619;49.008;12.106;2023-05-07T01:57:16;11.10;99.90
45906;DHT22;31619;49.008;12.106;2023-05-07T01:59:41;11.10;99.90
45906;DHT22;31619;49.008;12.106;2023-05-07T02:02:07;11.20;99.90
45906;DHT22;31619;49.008;12.106;2023-05-07T02:04:32;11.20;99.90
45906;DHT22;31619;49.008;12.106;2023-05-07T02:06:58;11.20;99.90
45906;DHT22;31619;49.008;12.106;2023-05-07T02:09:24;11.20;99.90
45906;DHT22;31619;49.008;12.106;2023-05-07T02:11:49;11.10;99.90
45906;DHT22;31619;49.008;12.106;2023-05-07T02:14:15;11.10;99.90
45906;DHT22;31619;49.008;12.106;2023-05-07T02:16:41;11.10;99.90
45906;DHT22;31619;49.008;12.106;2023-05-07T02:19:07;11.00;99.90
45906;DHT22;31619;49.008;12.106;2023-05-07T02:21:32;11.00;99.90
45906;DHT22;31619;49.008;12.106;2023-05-07T02:23:58;11.00;99.90
45906;DHT22;31619;49.008;12.106;2023-05-07T02:26:24;11.00;99.90
45906;DHT22;31619;49.008;12.106;2023-05-07T02:28:50;11.00;99.90
45906;DHT22;31619;49.008;12.106;2023-05-07T02:31:16;11.00;99.90
45906;DHT22;31619;49.008;12.106;2023-05-07T02:33:41;11.00;99.90
45906;DHT22;31619;49.008;12.106;2023-05-07T02:36:11;11.00;99.90
45906;DHT22;31619;49.008;12.106;2023-05-07T02:38:37;11.00;99.90
45906;DHT22;31619;49.008;12.106;2023-05-07T02:41:02;11.00;99.90
45906;DHT22;31619;49.008;12.106;2023-05-07T02:43:28;11.10;99.90
45906;DHT22;31619;49.008;12.106;2023-05-07T02:46:07;11.00;99.90
45906;DHT22;31619;49.008;12.106;2023-05-07T02:48:34;11.10;99.90
45906;DHT22;31619;49.008;12.106;2023-05-07T02:51:00;11.10;99.90
45906;DHT22;31619;49.008;12.106;2023-05-07T02:53:26;11.10;99.90
45906;DHT22;31619;49.008;12.106;2023-05-07T02:55:53;11.10;99.90
45906;DHT22;31619;49.008;12.106;2023-05-07T02:58:19;11.10;99.90
45906;DHT22;31619;49.008;12.106;2023-05-07T03:00:45;11.10;99.90
45906;DHT22;31619;49.008;12.106;2023-05-07T03:03:20;11.10;99.90
45906;DHT22;31619;49.008;12.106;2023-05-07T03:05:46;11.00;99.90
45906;DHT22;31619;49.008;12.106;2023-05-07T03:08:11;11.10;99.90
45906;DHT22;31619;49.008;12.106;2023-05-07T03:10:37;11.10;99.90
45906;DHT22;31619;49.008;12.106;2023-05-07T03:13:03;11.00;99.90
45906;DHT22;31619;49.008;12.106;2023-05-07T03:15:29;11.00;99.90
45906;DHT22;31619;49.008;12.106;2023-05-07T03:17:55;11.00;99.90
45906;DHT22;31619;49.008;12.106;2023-05-07T03:20:20;10.90;99.90
45906;DHT22;31619;49.008;12.106;2023-05-07T03:22:46;10.90;99.90
45906;DHT22;31619;49.008;12.106;2023-05-07T03:25:12;10.90;99.90
45906;DHT22;31619;49.008;12.106;2023-05-07T03:27:38;10.90;99.90
45906;DHT22;31619;49.008;12.106;2023-05-07T03:30:04;10.90;99.90
45906;DHT22;31619;49.008;12.106;2023-05-07T03:32:29;10.90;99.90
45906;DHT22;31619;49.008;12.106;2023-05-07T03:34:55;10.90;99.90
45906;DHT22;31619;49.008;12.106;2023-05-07T03:37:21;10.90;99.90
45906;DHT22;31619;49.008;12.106;2023-05-07T03:39:47;10.90;99.90
45906;DHT22;31619;49.008;12.106;2023-05-07T03:42:14;11.00;99.90
45906;DHT22;31619;49.008;12.106;2023-05-07T03:44:40;11.00;99.90
45906;DHT22;31619;49.008;12.106;2023-05-07T03:47:05;10.90;99.90
45906;DHT22;31619;49.008;12.106;2023-05-07T03:49:31;11.00;99.90
45906;DHT22;31619;49.008;12.106;2023-05-07T03:51:57;11.00;99.90
45906;DHT22;31619;49.008;12.106;2023-05-07T03:54:23;11.00;99.90
45906;DHT22;31619;49.008;12.106;2023-05-07T03:56:48;11.10;99.90
45906;DHT22;31619;49.008;12.106;2023-05-07T03:59:14;11.10;99.90
45906;DHT22;31619;49.008;12.106;2023-05-07T04:01:40;11.10;99.90
45906;DHT22;31619;49.008;12.106;2023-05-07T04:04:05;11.20;99.90
45906;DHT22;31619;49.008;12.106;2023-05-07T04:06:31;11.20;99.90
45906;DHT22;31619;49.008;12.106;2023-05-07T04:08:57;11.20;99.90
45906;DHT22;31619;49.008;12.106;2023-05-07T04:11:23;11.20;99.90
45906;DHT22;31619;49.008;12.106;2023-05-07T04:13:48;11.30;99.90
45906;DHT22;31619;49.008;12.106;2023-05-07T04:16:14;11.40;99.90
45906;DHT22;31619;49.008;12.106;2023-05-07T04:18:41;11.40;99.90
45906;DHT22;31619;49.008;12.106;2023-05-07T04:21:17;11.40;99.90
45906;DHT22;31619;49.008;12.106;2023-05-07T04:23:42;11.60;99.90
45906;DHT22;31619;49.008;12.106;2023-05-07T04:26:08;11.60;99.90
45906;DHT22;31619;49.008;12.106;2023-05-07T04:28:34;11.60;99.90
45906;DHT22;31619;49.008;12.106;2023-05-07T04:31:00;11.70;99.90
45906;DHT22;31619;49.008;12.106;2023-05-07T04:33:26;11.80;99.90
45906;DHT22;31619;49.008;12.106;2023-05-07T04:35:52;11.90;99.90
45906;DHT22;31619;49.008;12.106;2023-05-07T04:38:17;12.00;99.90
45906;DHT22;31619;49.008;12.106;2023-05-07T04:40:44;12.10;99.90
45906;DHT22;31619;49.008;12.106;2023-05-07T04:43:10;12.10;99.90
45906;DHT22;31619;49.008;12.106;2023-05-07T04:45:36;12.30;99.90
45906;DHT22;31619;49.008;12.106;2023-05-07T04:48:02;12.40;99.90
45906;DHT22;31619;49.008;12.106;2023-05-07T04:50:27;12.60;99.90
45906;DHT22;31619;49.008;12.106;2023-05-07T04:52:53;12.70;99.90
45906;DHT22;31619;49.008;12.106;2023-05-07T04:55:18;12.90;99.90
45906;DHT22;31619;49.008;12.106;2023-05-07T04:57:44;13.00;99.90
45906;DHT22;31619;49.008;12.106;2023-05-07T05:00:11;13.20;99.90
45906;DHT22;31619;49.008;12.106;2023-05-07T05:02:40;13.40;99.90
45906;DHT22;31619;49.008;12.106;2023-05-07T05:05:06;13.50;99.90
45906;DHT22;31619;49.008;12.106;2023-05-07T05:07:32;13.70;99.90
